createdAt,value
2022-09-05T00:00:11.925Z,98039.72
2022-09-05T00:03:00.834Z,98048.31
2022-09-05T00:06:03.208Z,98040.63
2022-09-05T00:09:02.264Z,98044.03
2022-09-05T00:11:47.728Z,98043.41
2022-09-05T00:15:14.726Z,98044.13
2022-09-05T00:18:44.120Z,98048.72
2022-09-05T00:24:24.986Z,98036.06
2022-09-05T00:24:35.106Z,98029.56
2022-09-05T00:27:43.707Z,98035.22
2022-09-05T00:31:51.041Z,98035.66
2022-09-05T00:33:31.947Z,98029.84
2022-09-05T00:36:48.898Z,98028.66
2022-09-05T00:39:37.957Z,98021.34
2022-09-05T00:42:21.518Z,98027.84
2022-09-05T00:44:59.120Z,98025.34
2022-09-05T00:47:48.224Z,98022.84
2022-09-05T00:51:03.292Z,98022.69
2022-09-05T00:53:42.315Z,98031.53
2022-09-05T00:57:00.892Z,98037.25
2022-09-05T01:00:19.214Z,98033.53
2022-09-05T01:03:32.283Z,98043.41
2022-09-05T01:06:35.182Z,98041.34
2022-09-05T01:09:12.637Z,98040.38
2022-09-05T01:12:25.324Z,98038.09
2022-09-05T01:15:05.137Z,98030.19
2022-09-05T01:18:14.573Z,98031.69
2022-09-05T01:20:54.144Z,98025.59
2022-09-05T01:23:59.859Z,98021.63
2022-09-05T01:27:00.510Z,98019.22
2022-09-05T01:29:40.090Z,98020.22
2022-09-05T01:32:33.025Z,98015.78
2022-09-05T01:35:28.569Z,98009.28
2022-09-05T01:38:21.229Z,98006.56
2022-09-05T01:41:18.011Z,98002.59
2022-09-05T01:44:29.446Z,97996.13
2022-09-05T01:47:31.045Z,98008.63
2022-09-05T01:50:32.666Z,98006.97
2022-09-05T01:53:05.825Z,98010.34
2022-09-05T01:56:05.829Z,98007.25
2022-09-05T01:58:55.886Z,98005.16
2022-09-05T02:01:57.711Z,98013.50
2022-09-05T02:04:28.338Z,98003.72
2022-09-05T02:07:57.336Z,98003.34
2022-09-05T02:11:08.359Z,98003.94
2022-09-05T02:13:36.017Z,98004.63
2022-09-05T02:16:38.753Z,98004.69
2022-09-05T02:19:09.451Z,98001.75
2022-09-05T02:22:14.001Z,98003.88
2022-09-05T02:25:30.584Z,98010.56
2022-09-05T02:28:10.310Z,98005.16
2022-09-05T02:30:57.614Z,98002.88
2022-09-05T02:34:08.529Z,97999.34
2022-09-05T02:36:44.237Z,97997.06
2022-09-05T02:45:09.268Z,98000.00
2022-09-05T02:45:17.571Z,98001.69
2022-09-05T02:45:45.182Z,98000.25
2022-09-05T02:48:21.633Z,98005.03
2022-09-05T02:57:28.670Z,98005.72
2022-09-05T02:57:37.052Z,98001.50
2022-09-05T02:58:05.318Z,98001.97
2022-09-05T03:00:51.077Z,98003.69
2022-09-05T03:03:39.284Z,98003.13
2022-09-05T03:06:40.671Z,97997.75
2022-09-05T03:09:28.702Z,97999.00
2022-09-05T03:12:30.058Z,97992.38
2022-09-05T03:15:18.639Z,97996.38
2022-09-05T03:18:20.541Z,97984.13
2022-09-05T03:21:26.972Z,97989.66
2022-09-05T03:24:32.002Z,97990.06
2022-09-05T03:27:46.608Z,97992.16
2022-09-05T03:30:26.218Z,98002.47
2022-09-05T03:33:39.374Z,97998.16
2022-09-05T03:36:48.228Z,97989.03
2022-09-05T03:39:46.460Z,97995.09
2022-09-05T03:42:57.610Z,97989.13
2022-09-05T03:46:05.203Z,97988.34
2022-09-05T03:48:58.045Z,98000.06
2022-09-05T03:57:14.767Z,97993.06
2022-09-05T03:57:27.025Z,97997.44
2022-09-05T03:58:55.398Z,97997.44
2022-09-05T04:02:22.400Z,97998.25
2022-09-05T04:08:08.280Z,97993.25
2022-09-05T04:08:23.655Z,97989.94
2022-09-05T04:11:19.541Z,98006.25
2022-09-05T04:14:02.841Z,97999.16
2022-09-05T04:17:19.184Z,98001.03
2022-09-05T04:20:28.955Z,97997.13
2022-09-05T04:23:28.408Z,97998.38
2022-09-05T04:26:30.382Z,97987.19
2022-09-05T04:29:26.251Z,97996.94
2022-09-05T04:32:38.379Z,97996.94
2022-09-05T04:36:18.277Z,97999.44
2022-09-05T04:38:46.637Z,97997.94
2022-09-05T04:41:39.952Z,98000.03
2022-09-05T04:44:17.968Z,98006.66
2022-09-05T04:46:53.690Z,98012.09
2022-09-05T04:49:40.216Z,98014.19
2022-09-05T04:52:55.205Z,98011.91
2022-09-05T04:55:30.508Z,98006.88
2022-09-05T04:59:29.335Z,98016.50
2022-09-05T05:06:02.070Z,98022.28
2022-09-05T05:06:09.937Z,98026.44
2022-09-05T05:07:27.189Z,98027.41
2022-09-05T05:12:08.867Z,98030.16
2022-09-05T05:17:55.803Z,98031.63
2022-09-05T05:18:15.779Z,98033.53
2022-09-05T05:19:33.116Z,98037.25
2022-09-05T05:22:04.740Z,98040.81
2022-09-05T05:24:46.864Z,98039.53
2022-09-05T05:27:39.001Z,98039.75
2022-09-05T05:30:11.112Z,98038.72
2022-09-05T05:32:51.810Z,98038.47
2022-09-05T05:35:30.438Z,98049.31
2022-09-05T05:38:16.898Z,98053.91
2022-09-05T05:41:16.248Z,98055.34
2022-09-05T05:43:46.774Z,98053.00
2022-09-05T05:46:33.536Z,98061.97
2022-09-05T05:49:49.376Z,98056.34
2022-09-05T05:53:01.194Z,98061.09
2022-09-05T05:56:02.839Z,98065.25
2022-09-05T05:58:59.186Z,98060.66
2022-09-05T06:02:02.973Z,98063.97
2022-09-05T06:05:00.636Z,98062.50
2022-09-05T06:11:20.438Z,98062.88
2022-09-05T06:14:52.425Z,98068.47
2022-09-05T06:15:10.144Z,98060.75
2022-09-05T06:17:51.779Z,98068.19
2022-09-05T06:22:06.198Z,98062.78
2022-09-05T06:24:28.596Z,98063.13
2022-09-05T06:27:28.947Z,98064.19
2022-09-05T06:30:14.599Z,98063.28
2022-09-05T06:33:10.170Z,98065.31
2022-09-05T06:36:25.632Z,98068.19
2022-09-05T06:39:31.945Z,98070.00
2022-09-05T06:42:43.232Z,98072.03
2022-09-05T06:45:58.980Z,98073.44
2022-09-05T06:49:30.072Z,98072.31
2022-09-05T06:52:29.412Z,98074.94
2022-09-05T06:55:38.177Z,98075.31
2022-09-05T06:58:27.599Z,98074.66
2022-09-05T07:00:58.551Z,98075.28
2022-09-05T07:04:34.548Z,98079.56
2022-09-05T07:07:06.248Z,98078.19
2022-09-05T07:09:47.670Z,98071.94
2022-09-05T07:12:48.539Z,98081.31
2022-09-05T07:16:00.446Z,98075.47
2022-09-05T07:19:03.162Z,98077.47
2022-09-05T07:21:54.694Z,98079.53
2022-09-05T07:24:53.754Z,98078.69
2022-09-05T07:28:25.781Z,98083.34
2022-09-05T07:30:33.869Z,98081.63
2022-09-05T07:33:04.390Z,98074.66
2022-09-05T07:35:42.254Z,98071.88
2022-09-05T07:38:26.768Z,98082.44
2022-09-05T07:41:25.252Z,98079.38
2022-09-05T07:44:18.555Z,98087.47
2022-09-05T07:46:59.009Z,98083.09
2022-09-05T07:49:31.143Z,98091.22
2022-09-05T07:56:52.411Z,98091.34
2022-09-05T07:56:54.486Z,98089.22
2022-09-05T07:58:41.382Z,98091.16
2022-09-05T08:01:13.483Z,98092.47
2022-09-05T08:03:44.022Z,98090.50
2022-09-05T08:06:37.509Z,98096.75
2022-09-05T08:10:08.378Z,98093.03
2022-09-05T08:12:28.128Z,98090.31
2022-09-05T08:15:22.870Z,98093.84
2022-09-05T08:18:37.939Z,98086.63
2022-09-05T08:21:51.912Z,98091.47
2022-09-05T08:24:27.074Z,98092.88
2022-09-05T08:27:20.323Z,98082.34
2022-09-05T08:30:25.099Z,98084.69
2022-09-05T08:33:11.295Z,98080.47
2022-09-05T08:36:10.546Z,98083.28
2022-09-05T08:38:42.429Z,98076.88
2022-09-05T08:41:43.090Z,98079.72
2022-09-05T08:46:44.007Z,98083.16
2022-09-05T08:47:45.713Z,98079.81
2022-09-05T08:50:26.813Z,98081.78
2022-09-05T08:53:46.280Z,98082.59
2022-09-05T08:56:33.979Z,98073.09
2022-09-05T08:59:35.060Z,98076.50
2022-09-05T09:02:47.051Z,98085.56
2022-09-05T09:06:12.291Z,98075.94
2022-09-05T09:08:52.406Z,98079.13
2022-09-05T09:11:50.990Z,98076.19
2022-09-05T09:14:52.574Z,98074.44
2022-09-05T09:17:47.198Z,98072.88
2022-09-05T09:20:37.883Z,98071.06
2022-09-05T09:23:32.322Z,98066.78
2022-09-05T09:26:17.195Z,98069.06
2022-09-05T09:29:10.316Z,98062.91
2022-09-05T09:32:09.666Z,98061.41
2022-09-05T09:35:16.828Z,98045.34
2022-09-05T09:38:28.262Z,98051.47
2022-09-05T09:41:26.985Z,98055.09
2022-09-05T09:44:24.238Z,98048.03
2022-09-05T09:46:53.434Z,98052.47
2022-09-05T09:49:54.975Z,98052.56
2022-09-05T09:52:56.688Z,98057.03
2022-09-05T09:56:06.648Z,98050.31
2022-09-05T09:59:03.748Z,98047.97
2022-09-05T10:01:53.351Z,98054.06
2022-09-05T10:10:38.734Z,98050.91
2022-09-05T10:10:55.576Z,98045.78
2022-09-05T10:15:06.538Z,98049.25
2022-09-05T10:18:25.727Z,98043.03
2022-09-05T10:21:17.372Z,98047.16
2022-09-05T10:24:22.829Z,98040.94
2022-09-05T10:27:25.174Z,98034.13
2022-09-05T10:32:10.345Z,98033.63
2022-09-05T10:35:14.037Z,98027.06
2022-09-05T10:36:30.058Z,98020.41
2022-09-05T10:39:21.072Z,98008.66
2022-09-05T10:42:03.552Z,98013.72
2022-09-05T10:45:02.381Z,98008.31
2022-09-05T10:47:48.420Z,98006.47
2022-09-05T10:50:37.025Z,98005.16
2022-09-05T10:53:28.250Z,97997.31
2022-09-05T10:56:12.682Z,98011.34
2022-09-05T11:01:48.570Z,98008.63
2022-09-05T11:02:27.747Z,98002.72
2022-09-05T11:05:23.621Z,97995.56
2022-09-05T11:08:18.372Z,97998.56
2022-09-05T11:11:01.362Z,97996.69
2022-09-05T11:14:00.849Z,97992.59
2022-09-05T11:16:53.100Z,97989.31
2022-09-05T11:19:49.084Z,97990.66
2022-09-05T11:22:22.819Z,97991.47
2022-09-05T11:24:59.756Z,97988.75
2022-09-05T11:27:49.259Z,97992.84
2022-09-05T11:30:30.298Z,97990.91
2022-09-05T11:39:47.611Z,97993.41
2022-09-05T11:40:10.268Z,97993.47
2022-09-05T11:42:58.344Z,97986.41
2022-09-05T11:45:58.529Z,97990.50
2022-09-05T11:48:54.012Z,97986.69
2022-09-05T11:52:14.278Z,97980.66
2022-09-05T11:55:00.502Z,97983.97
2022-09-05T11:58:43.463Z,97980.44
2022-09-05T12:01:41.823Z,97974.81
2022-09-05T12:04:46.686Z,97969.94
2022-09-05T12:08:08.566Z,97966.97
2022-09-05T12:11:05.517Z,97969.19
2022-09-05T12:14:25.416Z,97967.59
2022-09-05T12:17:35.474Z,97964.13
2022-09-05T12:20:31.812Z,97960.59
2022-09-05T12:23:53.810Z,97958.44
2022-09-05T12:27:40.545Z,97960.91
2022-09-05T12:29:29.236Z,97951.31
2022-09-05T12:33:58.098Z,97941.44
2022-09-05T12:36:09.835Z,97941.09
2022-09-05T12:40:55.126Z,97940.28
2022-09-05T12:41:36.165Z,97932.00
2022-09-05T12:44:52.538Z,97935.22
2022-09-05T12:47:24.088Z,97930.78
2022-09-05T12:50:15.253Z,97932.97
2022-09-05T12:52:46.709Z,97930.69
2022-09-05T12:55:26.214Z,97926.28
2022-09-05T13:01:46.269Z,97935.41
2022-09-05T13:03:02.511Z,97928.84
2022-09-05T13:04:20.898Z,97926.44
2022-09-05T13:07:18.361Z,97921.56
2022-09-05T13:12:48.134Z,97911.44
2022-09-05T13:14:54.908Z,97905.84
2022-09-05T13:15:51.055Z,97909.06
2022-09-05T13:18:31.867Z,97910.34
2022-09-05T13:21:08.558Z,97901.16
2022-09-05T13:24:27.536Z,97904.84
2022-09-05T13:27:28.521Z,97897.56
2022-09-05T13:32:39.044Z,97893.25
2022-09-05T13:38:04.874Z,97899.63
2022-09-05T13:38:06.454Z,97895.78
2022-09-05T13:39:12.495Z,97888.34
2022-09-05T13:41:59.542Z,97882.09
2022-09-05T13:44:30.079Z,97893.34
2022-09-05T13:47:30.352Z,97883.31
2022-09-05T13:50:33.799Z,97887.34
2022-09-05T13:53:37.918Z,97876.09
2022-09-05T13:56:27.574Z,97872.63
2022-09-05T13:59:16.259Z,97879.78
2022-09-05T14:05:35.521Z,97865.16
2022-09-05T14:08:33.734Z,97865.50
2022-09-05T14:11:19.049Z,97863.91
2022-09-05T14:14:11.315Z,97855.38
2022-09-05T14:20:27.964Z,97854.28
2022-09-05T14:23:15.897Z,97842.69
2022-09-05T14:25:55.571Z,97851.19
2022-09-05T14:28:38.602Z,97852.41
2022-09-05T14:37:44.832Z,97851.47
2022-09-05T14:37:46.745Z,97854.00
2022-09-05T14:38:09.399Z,97852.44
2022-09-05T14:40:59.696Z,97845.03
2022-09-05T14:44:05.371Z,97836.41
2022-09-05T14:46:39.181Z,97838.22
2022-09-05T14:50:30.136Z,97836.91
2022-09-05T14:56:59.742Z,97827.06
2022-09-05T15:02:49.655Z,97832.84
2022-09-05T15:03:00.197Z,97839.22
2022-09-05T15:05:29.327Z,97834.72
2022-09-05T15:10:06.461Z,97834.66
2022-09-05T15:12:24.351Z,97826.63
2022-09-05T15:14:05.003Z,97827.94
2022-09-05T15:16:38.713Z,97832.19
2022-09-05T15:19:10.768Z,97827.22
2022-09-05T15:21:41.515Z,97814.91
2022-09-05T15:24:27.984Z,97808.25
2022-09-05T15:27:02.769Z,97813.28
2022-09-05T15:29:36.834Z,97814.41
2022-09-05T15:32:27.341Z,97809.88
2022-09-05T15:34:59.137Z,97808.41
2022-09-05T15:37:38.741Z,97804.50
2022-09-05T15:40:07.432Z,97809.56
2022-09-05T15:43:02.586Z,97802.38
2022-09-05T15:45:37.309Z,97801.38
2022-09-05T15:48:21.509Z,97800.00
2022-09-05T15:50:52.893Z,97791.63
2022-09-05T15:53:36.481Z,97803.88
2022-09-05T15:56:10.367Z,97798.91
2022-09-05T15:58:56.927Z,97797.91
2022-09-05T16:01:58.691Z,97793.31
2022-09-05T16:10:26.967Z,97789.34
2022-09-05T16:10:41.443Z,97794.47
2022-09-05T16:10:58.031Z,97787.47
2022-09-05T16:13:19.399Z,97789.78
2022-09-05T16:23:18.047Z,97781.53
2022-09-05T16:23:26.778Z,97783.47
2022-09-05T16:23:27.396Z,97780.69
2022-09-05T16:24:58.995Z,97786.06
2022-09-05T16:27:57.654Z,97775.38
2022-09-05T16:30:31.122Z,97781.44
2022-09-05T16:33:16.503Z,97772.38
2022-09-05T16:36:02.461Z,97769.81
2022-09-05T16:39:15.171Z,97768.59
2022-09-05T16:41:57.959Z,97766.81
2022-09-05T16:44:43.231Z,97764.19
2022-09-05T16:48:08.085Z,97767.13
2022-09-05T16:51:13.443Z,97759.00
2022-09-05T16:53:58.337Z,97759.66
2022-09-05T16:56:37.008Z,97759.19
2022-09-05T16:59:17.750Z,97762.50
2022-09-05T17:02:07.257Z,97764.19
2022-09-05T17:05:03.508Z,97755.44
2022-09-05T17:07:45.368Z,97754.91
2022-09-05T17:10:21.111Z,97750.56
2022-09-05T17:12:54.071Z,97756.13
2022-09-05T17:15:38.233Z,97749.28
2022-09-05T17:18:25.984Z,97752.16
2022-09-05T17:21:00.408Z,97750.84
2022-09-05T17:26:13.225Z,97751.22
2022-09-05T17:29:32.371Z,97749.91
2022-09-05T17:32:50.703Z,97748.09
2022-09-05T17:35:43.728Z,97756.94
2022-09-05T17:39:01.591Z,97752.34
2022-09-05T17:41:51.638Z,97756.78
2022-09-05T17:44:38.861Z,97757.72
2022-09-05T17:47:36.383Z,97755.31
2022-09-05T17:50:20.329Z,97752.66
2022-09-05T17:53:25.156Z,97756.25
2022-09-05T17:55:50.543Z,97757.38
2022-09-05T17:58:49.018Z,97754.69
2022-09-05T18:01:26.386Z,97753.09
2022-09-05T18:04:08.588Z,97756.44
2022-09-05T18:06:58.973Z,97757.81
2022-09-05T18:09:37.535Z,97761.66
2022-09-05T18:13:11.951Z,97762.78
2022-09-05T18:15:17.002Z,97772.41
2022-09-05T18:18:49.408Z,97770.50
2022-09-05T18:21:22.305Z,97764.78
2022-09-05T18:24:01.339Z,97766.13
2022-09-05T18:26:39.627Z,97760.63
2022-09-05T18:29:57.895Z,97769.91
2022-09-05T18:32:54.280Z,97772.38
2022-09-05T18:36:04.371Z,97777.84
2022-09-05T18:38:51.512Z,97782.19
2022-09-05T18:41:28.276Z,97779.16
2022-09-05T18:44:13.616Z,97788.41
2022-09-05T18:46:52.520Z,97787.03
2022-09-05T18:50:22.390Z,97784.31
2022-09-05T18:52:34.251Z,97785.09
2022-09-05T18:56:08.924Z,97787.28
2022-09-05T18:58:25.748Z,97797.34
2022-09-05T19:00:56.001Z,97787.50
2022-09-05T19:03:32.196Z,97783.63
2022-09-05T19:06:36.250Z,97794.56
2022-09-05T19:09:10.790Z,97795.88
2022-09-05T19:11:53.988Z,97794.50
2022-09-05T19:14:49.170Z,97797.19
2022-09-05T19:17:24.120Z,97805.31
2022-09-05T19:20:32.947Z,97802.56
2022-09-05T19:23:13.172Z,97798.72
2022-09-05T19:25:46.115Z,97805.78
2022-09-05T19:33:30.012Z,97798.94
2022-09-05T19:36:50.763Z,97799.13
2022-09-05T19:36:58.281Z,97801.00
2022-09-05T19:37:25.500Z,97796.06
2022-09-05T19:46:24.814Z,97789.50
2022-09-05T19:47:29.718Z,97791.91
2022-09-05T19:47:47.689Z,97793.25
2022-09-05T19:48:35.070Z,97794.00
2022-09-05T19:51:17.143Z,97787.13
2022-09-05T19:54:04.081Z,97774.56
2022-09-05T19:56:40.206Z,97763.09
2022-09-05T19:59:22.637Z,97760.06
2022-09-05T20:01:53.108Z,97754.25
2022-09-05T20:04:21.731Z,97755.28
2022-09-05T20:06:50.328Z,97753.88
2022-09-05T20:09:24.393Z,97747.59
2022-09-05T20:11:58.550Z,97745.69
2022-09-05T20:14:31.285Z,97749.44
2022-09-05T20:17:17.303Z,97742.88
2022-09-05T20:19:46.012Z,97745.03
2022-09-05T20:22:37.121Z,97752.91
2022-09-05T20:25:35.791Z,97748.28
2022-09-05T20:28:35.671Z,97754.44
2022-09-05T20:31:12.242Z,97752.53
2022-09-05T20:33:51.634Z,97747.66
2022-09-05T20:42:14.066Z,97746.84
2022-09-05T20:43:16.579Z,97753.09
2022-09-05T20:43:17.746Z,97742.72
2022-09-05T20:45:54.472Z,97750.59
2022-09-05T20:54:09.365Z,97761.16
2022-09-05T20:54:15.238Z,97756.50
2022-09-05T20:54:39.368Z,97755.38
2022-09-05T20:57:18.882Z,97767.09
2022-09-05T20:59:47.379Z,97763.22
2022-09-05T21:02:29.518Z,97768.13
2022-09-05T21:05:20.969Z,97756.66
2022-09-05T21:08:06.788Z,97761.81
2022-09-05T21:10:55.033Z,97754.50
2022-09-05T21:13:32.310Z,97761.94
2022-09-05T21:16:01.213Z,97755.97
2022-09-05T21:18:33.229Z,97757.38
2022-09-05T21:21:28.103Z,97761.97
2022-09-05T21:24:17.344Z,97754.88
2022-09-05T21:26:48.753Z,97764.66
2022-09-05T21:29:33.229Z,97760.50
2022-09-05T21:32:10.434Z,97752.50
2022-09-05T21:34:53.750Z,97753.53
2022-09-05T21:37:21.631Z,97754.31
2022-09-05T21:39:59.753Z,97754.78
2022-09-05T21:47:03.534Z,97755.28
2022-09-05T21:47:40.211Z,97749.50
2022-09-05T21:48:15.075Z,97749.44
2022-09-05T21:50:46.512Z,97750.44
2022-09-05T21:58:37.594Z,97746.91
2022-09-05T21:59:20.807Z,97741.16
2022-09-05T21:59:46.884Z,97739.66
2022-09-05T22:02:16.854Z,97737.94
2022-09-05T22:04:46.089Z,97733.00
2022-09-05T22:07:25.365Z,97731.69
2022-09-05T22:10:04.432Z,97734.44
2022-09-05T22:12:38.749Z,97738.84
2022-09-05T22:15:26.545Z,97731.84
2022-09-05T22:18:16.083Z,97731.34
2022-09-05T22:21:03.982Z,97734.63
2022-09-05T22:23:38.724Z,97735.13
2022-09-05T22:26:06.767Z,97726.59
2022-09-05T22:28:38.750Z,97727.63
2022-09-05T22:31:07.917Z,97723.50
2022-09-05T22:33:36.395Z,97725.38
2022-09-05T22:36:04.856Z,97724.81
2022-09-05T22:38:33.433Z,97729.13
2022-09-05T22:41:01.187Z,97734.00
2022-09-05T22:43:33.900Z,97732.63
2022-09-05T22:46:01.745Z,97739.91
2022-09-05T22:48:29.901Z,97732.78
2022-09-05T22:50:58.002Z,97730.91
2022-09-05T22:53:26.072Z,97733.06
2022-09-05T22:56:05.631Z,97725.22
2022-09-05T22:58:51.517Z,97724.69
2022-09-05T23:01:19.292Z,97731.25
2022-09-05T23:03:47.236Z,97731.81
2022-09-05T23:06:15.063Z,97720.06
2022-09-05T23:08:42.868Z,97725.50
2022-09-05T23:11:14.019Z,97716.78
2022-09-05T23:13:43.037Z,97730.66
2022-09-05T23:16:11.510Z,97713.47
2022-09-05T23:18:40.231Z,97724.91
2022-09-05T23:21:11.765Z,97714.50
2022-09-05T23:23:41.418Z,97709.56
2022-09-05T23:26:12.512Z,97713.03
2022-09-05T23:28:43.411Z,97713.03
2022-09-05T23:31:12.793Z,97707.03
2022-09-05T23:33:42.061Z,97713.28
2022-09-05T23:36:15.860Z,97712.72
2022-09-05T23:38:44.154Z,97705.63
2022-09-05T23:41:14.777Z,97708.09
2022-09-05T23:43:43.078Z,97702.91
2022-09-05T23:46:11.354Z,97703.41
2022-09-05T23:48:39.642Z,97704.16
2022-09-05T23:51:13.129Z,97702.50
2022-09-05T23:53:41.445Z,97701.94
2022-09-05T23:56:10.994Z,97699.22
2022-09-05T23:58:39.128Z,97694.28
